createdAt,value
2023-05-04T00:02:03.288Z,12.55
2023-05-04T00:04:29.846Z,12.41
2023-05-04T00:06:56.401Z,12.30
2023-05-04T00:09:22.868Z,12.15
2023-05-04T00:11:49.388Z,12.19
2023-05-04T00:14:16.067Z,12.19
2023-05-04T00:16:43.265Z,12.16
2023-05-04T00:19:10.096Z,12.12
2023-05-04T00:21:36.514Z,12.26
2023-05-04T00:24:03.126Z,12.15
2023-05-04T00:26:29.576Z,12.12
2023-05-04T00:28:56.081Z,12.04
2023-05-04T00:31:22.726Z,12.02
2023-05-04T00:33:49.291Z,11.94
2023-05-04T00:36:16.042Z,12.12
2023-05-04T00:38:54.217Z,12.00
2023-05-04T00:41:21.825Z,11.88
2023-05-04T00:43:49.004Z,11.80
2023-05-04T00:46:16.083Z,11.73
2023-05-04T00:48:43.516Z,11.88
2023-05-04T00:51:14.343Z,11.80
2023-05-04T00:53:41.874Z,11.79
2023-05-04T00:56:08.888Z,11.76
2023-05-04T00:58:35.645Z,11.79
2023-05-04T01:01:03.532Z,11.78
2023-05-04T01:03:31.321Z,11.65
2023-05-04T01:06:24.682Z,11.76
2023-05-04T01:09:33.149Z,11.51
2023-05-04T01:12:17.901Z,11.50
2023-05-04T01:14:44.478Z,11.39
2023-05-04T01:17:11.819Z,11.34
2023-05-04T01:19:38.798Z,11.27
2023-05-04T01:22:05.611Z,11.33
2023-05-04T01:24:32.871Z,11.35
2023-05-04T01:27:02.411Z,11.29
2023-05-04T01:29:38.695Z,11.20
2023-05-04T01:32:06.480Z,11.10
2023-05-04T01:34:33.955Z,11.11
2023-05-04T01:37:00.833Z,11.08
2023-05-04T01:39:30.022Z,10.98
2023-05-04T01:41:57.140Z,11.01
2023-05-04T01:44:23.695Z,10.97
2023-05-04T01:46:50.217Z,10.90
2023-05-04T01:49:16.684Z,11.12
2023-05-04T01:51:43.279Z,11.24
2023-05-04T01:54:10.251Z,11.30
2023-05-04T01:56:36.854Z,11.25
2023-05-04T01:59:04.507Z,11.32
2023-05-04T02:01:31.070Z,11.33
2023-05-04T02:03:57.774Z,11.07
2023-05-04T02:06:24.673Z,10.96
2023-05-04T02:08:51.293Z,11.03
2023-05-04T02:11:17.818Z,10.92
2023-05-04T02:13:44.338Z,11.01
2023-05-04T02:16:10.941Z,10.96
2023-05-04T02:18:37.491Z,10.93
2023-05-04T02:21:04.112Z,10.91
2023-05-04T02:23:30.697Z,10.75
2023-05-04T02:25:57.212Z,10.71
2023-05-04T02:28:23.702Z,10.66
2023-05-04T02:30:50.265Z,10.62
2023-05-04T02:33:16.848Z,10.60
2023-05-04T02:35:43.347Z,10.55
2023-05-04T02:38:09.897Z,10.48
2023-05-04T02:40:36.386Z,10.48
2023-05-04T02:43:02.827Z,10.55
2023-05-04T02:45:29.337Z,10.61
2023-05-04T02:47:55.859Z,10.44
2023-05-04T02:50:22.389Z,10.49
2023-05-04T02:52:48.886Z,10.48
2023-05-04T02:55:15.839Z,10.42
2023-05-04T02:57:42.332Z,10.40
2023-05-04T03:00:09.329Z,10.26
2023-05-04T03:02:35.907Z,10.23
2023-05-04T03:05:02.870Z,10.35
2023-05-04T03:07:29.606Z,10.41
2023-05-04T03:09:56.115Z,10.25
2023-05-04T03:12:22.609Z,10.27
2023-05-04T03:14:49.071Z,10.52
2023-05-04T03:17:15.658Z,10.60
2023-05-04T03:19:42.349Z,10.78
2023-05-04T03:22:08.857Z,10.82
2023-05-04T03:24:37.039Z,10.77
2023-05-04T03:27:03.791Z,10.76
2023-05-04T03:29:30.307Z,10.90
2023-05-04T03:31:56.941Z,10.80
2023-05-04T03:34:23.481Z,10.67
2023-05-04T03:36:50.069Z,10.61
2023-05-04T03:39:17.769Z,10.49
2023-05-04T03:41:44.317Z,10.41
2023-05-04T03:44:10.892Z,10.47
2023-05-04T03:46:37.491Z,10.37
2023-05-04T03:49:04.106Z,10.48
2023-05-04T03:51:30.582Z,10.24
2023-05-04T03:53:57.064Z,10.26
2023-05-04T03:56:23.525Z,10.29
2023-05-04T03:58:49.974Z,10.18
2023-05-04T04:01:16.450Z,10.14
2023-05-04T04:03:43.044Z,10.21
2023-05-04T04:06:10.576Z,10.14
2023-05-04T04:08:37.254Z,10.23
2023-05-04T04:11:03.767Z,10.43
2023-05-04T04:13:30.417Z,10.38
2023-05-04T04:15:56.977Z,10.41
2023-05-04T04:18:24.499Z,10.38
2023-05-04T04:20:51.094Z,10.14
2023-05-04T04:23:21.647Z,10.29
2023-05-04T04:25:48.285Z,10.21
2023-05-04T04:28:14.886Z,10.22
2023-05-04T04:30:41.760Z,10.29
2023-05-04T04:33:08.862Z,10.49
2023-05-04T04:35:35.760Z,10.36
2023-05-04T04:38:03.785Z,10.57
2023-05-04T04:40:30.637Z,10.59
2023-05-04T04:42:57.263Z,10.78
2023-05-04T04:45:24.124Z,10.75
2023-05-04T04:47:51.191Z,10.70
2023-05-04T04:50:18.191Z,10.91
2023-05-04T04:52:45.422Z,10.72
2023-05-04T04:55:12.190Z,10.68
2023-05-04T04:57:38.696Z,10.89
2023-05-04T05:00:10.065Z,10.83
2023-05-04T05:02:37.001Z,11.11
2023-05-04T05:05:03.967Z,11.17
2023-05-04T05:07:30.711Z,11.24
2023-05-04T05:09:57.213Z,11.39
2023-05-04T05:12:23.723Z,11.52
2023-05-04T05:14:50.882Z,11.61
2023-05-04T05:17:18.065Z,11.55
2023-05-04T05:19:44.502Z,11.52
2023-05-04T05:22:11.014Z,11.64
2023-05-04T05:24:37.545Z,11.76
2023-05-04T05:27:04.100Z,11.94
2023-05-04T05:29:31.056Z,11.98
2023-05-04T05:31:57.603Z,12.18
2023-05-04T05:34:24.116Z,12.36
2023-05-04T05:36:50.567Z,12.49
2023-05-04T05:39:17.699Z,12.86
2023-05-04T05:41:44.258Z,13.09
2023-05-04T05:44:12.921Z,13.49
2023-05-04T05:46:40.037Z,13.77
2023-05-04T05:49:07.442Z,14.15
2023-05-04T05:51:34.050Z,14.40
2023-05-04T05:54:00.882Z,14.76
2023-05-04T05:56:27.364Z,15.01
2023-05-04T05:58:53.885Z,15.29
2023-05-04T06:01:20.350Z,15.55
2023-05-04T06:03:47.094Z,15.76
2023-05-04T06:06:13.891Z,15.86
2023-05-04T06:08:41.514Z,16.22
2023-05-04T06:11:08.003Z,16.38
2023-05-04T06:13:34.517Z,16.39
2023-05-04T06:16:01.041Z,16.70
2023-05-04T06:18:27.505Z,17.00
2023-05-04T06:21:01.245Z,17.02
2023-05-04T06:23:31.334Z,16.92
2023-05-04T06:25:58.091Z,17.09
2023-05-04T06:28:24.801Z,17.38
2023-05-04T06:30:51.497Z,17.43
2023-05-04T06:33:17.952Z,17.85
2023-05-04T06:35:45.434Z,17.82
2023-05-04T06:38:12.034Z,17.84
2023-05-04T06:40:38.552Z,18.21
2023-05-04T06:43:05.216Z,18.51
2023-05-04T06:45:34.597Z,18.12
2023-05-04T06:48:01.325Z,18.38
2023-05-04T06:50:27.924Z,18.41
2023-05-04T06:53:07.808Z,18.34
2023-05-04T06:55:34.888Z,18.61
2023-05-04T06:58:01.545Z,18.96
2023-05-04T07:00:28.238Z,19.29
2023-05-04T07:02:55.075Z,19.29
2023-05-04T07:05:22.361Z,19.67
2023-05-04T07:07:51.258Z,20.16
2023-05-04T07:10:19.610Z,20.27
2023-05-04T07:12:46.817Z,20.65
2023-05-04T07:15:13.553Z,20.47
2023-05-04T07:17:40.430Z,20.56
2023-05-04T07:20:07.988Z,20.66
2023-05-04T07:22:34.826Z,20.71
2023-05-04T07:25:01.855Z,20.46
2023-05-04T07:27:28.303Z,20.63
2023-05-04T07:29:55.340Z,21.13
2023-05-04T07:32:22.030Z,21.33
2023-05-04T07:34:48.633Z,21.26
2023-05-04T07:37:19.001Z,21.70
2023-05-04T07:39:45.545Z,21.78
2023-05-04T07:42:12.247Z,22.22
2023-05-04T07:44:38.978Z,21.64
2023-05-04T07:47:05.678Z,21.92
2023-05-04T07:49:32.847Z,21.99
2023-05-04T07:51:59.652Z,21.89
2023-05-04T07:54:26.179Z,22.00
2023-05-04T07:56:52.691Z,22.61
2023-05-04T07:59:19.540Z,22.66
2023-05-04T08:01:46.628Z,23.06
2023-05-04T08:04:13.189Z,22.57
2023-05-04T08:06:39.841Z,22.79
2023-05-04T08:09:06.650Z,23.14
2023-05-04T08:11:34.758Z,22.67
2023-05-04T08:14:01.734Z,22.36
2023-05-04T08:16:29.288Z,23.15
2023-05-04T08:18:57.100Z,24.41
2023-05-04T08:21:23.635Z,24.97
2023-05-04T08:23:50.157Z,24.77
2023-05-04T08:26:17.160Z,25.23
2023-05-04T08:28:45.701Z,25.79
2023-05-04T08:31:13.247Z,25.64
2023-05-04T08:33:39.913Z,26.23
2023-05-04T08:36:08.160Z,26.24
2023-05-04T08:38:35.113Z,26.53
2023-05-04T08:41:05.909Z,26.25
2023-05-04T08:43:36.326Z,26.28
2023-05-04T08:46:04.870Z,25.60
2023-05-04T08:48:33.639Z,26.32
2023-05-04T08:51:01.173Z,26.65
2023-05-04T08:53:29.924Z,26.62
2023-05-04T08:55:59.145Z,27.27
2023-05-04T08:58:27.623Z,27.33
2023-05-04T09:00:55.821Z,27.64
2023-05-04T09:03:23.336Z,28.09
2023-05-04T09:05:51.000Z,27.57
2023-05-04T09:08:17.999Z,27.99
2023-05-04T09:10:44.517Z,27.99
2023-05-04T09:13:11.271Z,27.83
2023-05-04T09:15:37.947Z,28.75
2023-05-04T09:18:06.483Z,28.67
2023-05-04T09:20:47.382Z,29.06
2023-05-04T09:23:15.524Z,28.02
2023-05-04T09:25:55.293Z,29.20
2023-05-04T09:28:43.570Z,29.60
2023-05-04T09:31:11.913Z,29.90
2023-05-04T09:33:38.556Z,29.22
2023-05-04T09:36:21.946Z,28.61
2023-05-04T09:38:48.831Z,29.28
2023-05-04T09:41:15.467Z,29.81
2023-05-04T09:43:44.026Z,29.84
2023-05-04T09:46:18.299Z,29.77
2023-05-04T09:48:56.692Z,30.24
2023-05-04T09:51:24.762Z,29.15
2023-05-04T09:53:52.014Z,29.84
2023-05-04T09:56:52.387Z,30.37
2023-05-04T09:59:20.837Z,29.73
2023-05-04T10:01:47.921Z,30.43
2023-05-04T10:04:14.595Z,30.17
2023-05-04T10:06:43.231Z,30.97
2023-05-04T10:09:11.575Z,31.28
2023-05-04T10:11:38.342Z,31.40
2023-05-04T10:14:04.871Z,31.44
2023-05-04T10:16:45.043Z,30.91
2023-05-04T10:19:23.675Z,30.59
2023-05-04T10:21:58.911Z,31.44
2023-05-04T10:25:12.292Z,31.61
2023-05-04T10:28:02.136Z,32.38
2023-05-04T10:30:29.401Z,32.56
2023-05-04T10:32:59.591Z,33.07
2023-05-04T10:35:26.968Z,33.00
2023-05-04T10:37:54.872Z,32.92
2023-05-04T10:40:40.930Z,33.07
2023-05-04T10:43:08.745Z,33.25
2023-05-04T10:45:39.663Z,32.87
2023-05-04T10:48:08.089Z,33.43
2023-05-04T10:50:49.544Z,33.41
2023-05-04T10:53:17.778Z,33.53
2023-05-04T10:55:48.605Z,33.46
2023-05-04T10:58:21.500Z,33.36
2023-05-04T11:00:51.623Z,33.35
2023-05-04T11:03:19.282Z,32.78
2023-05-04T11:05:50.812Z,33.21
2023-05-04T11:08:19.591Z,33.33
2023-05-04T11:10:47.896Z,32.74
2023-05-04T11:13:16.225Z,33.19
2023-05-04T11:15:50.255Z,33.38
2023-05-04T11:18:29.257Z,31.97
2023-05-04T11:20:56.197Z,32.47
2023-05-04T11:23:23.302Z,32.97
2023-05-04T11:25:50.827Z,32.64
2023-05-04T11:28:17.463Z,33.00
2023-05-04T11:30:46.193Z,32.70
2023-05-04T11:33:14.327Z,33.00
2023-05-04T11:35:42.425Z,32.70
2023-05-04T11:38:09.068Z,33.53
2023-05-04T11:40:37.439Z,33.23
2023-05-04T11:43:04.298Z,33.40
2023-05-04T11:45:34.717Z,33.49
2023-05-04T11:48:02.113Z,33.48
2023-05-04T11:50:29.276Z,33.86
2023-05-04T11:53:08.961Z,33.64
2023-05-04T11:55:36.087Z,34.13
2023-05-04T11:58:07.934Z,33.33
2023-05-04T12:00:46.933Z,33.09
2023-05-04T12:03:15.724Z,33.54
2023-05-04T12:05:51.185Z,32.68
2023-05-04T12:08:29.953Z,32.88
2023-05-04T12:11:09.072Z,32.71
2023-05-04T12:13:36.108Z,33.66
2023-05-04T12:16:28.752Z,33.68
2023-05-04T12:19:21.678Z,33.72
2023-05-04T12:21:53.336Z,34.31
2023-05-04T12:24:22.518Z,33.88
2023-05-04T12:26:49.673Z,33.27
2023-05-04T12:29:16.687Z,33.01
2023-05-04T12:31:43.182Z,33.10
2023-05-04T12:34:09.627Z,32.64
2023-05-04T12:36:36.120Z,32.82
2023-05-04T12:39:02.629Z,33.28
2023-05-04T12:41:29.144Z,33.77
2023-05-04T12:43:55.974Z,33.98
2023-05-04T12:46:22.849Z,33.41
2023-05-04T12:48:49.474Z,33.75
2023-05-04T12:51:16.151Z,34.08
2023-05-04T12:53:43.707Z,34.64
2023-05-04T12:56:10.222Z,33.31
2023-05-04T12:58:36.745Z,33.71
2023-05-04T13:01:03.744Z,33.91
2023-05-04T13:03:30.417Z,33.80
2023-05-04T13:05:57.952Z,34.00
2023-05-04T13:08:24.970Z,33.29
2023-05-04T13:10:52.155Z,33.73
2023-05-04T13:13:19.234Z,32.95
2023-05-04T13:15:50.030Z,32.44
2023-05-04T13:18:16.807Z,33.06
2023-05-04T13:20:43.431Z,32.34
2023-05-04T13:23:09.954Z,32.34
2023-05-04T13:25:36.444Z,31.87
2023-05-04T13:28:03.514Z,32.57
2023-05-04T13:30:29.999Z,32.76
2023-05-04T13:32:56.686Z,32.81
2023-05-04T13:35:23.866Z,32.92
2023-05-04T13:37:50.861Z,33.29
2023-05-04T13:40:17.411Z,33.43
2023-05-04T13:42:44.065Z,33.24
2023-05-04T13:45:10.867Z,31.97
2023-05-04T13:47:37.760Z,32.11
2023-05-04T13:50:04.936Z,32.29
2023-05-04T13:52:32.445Z,32.09
2023-05-04T13:54:59.665Z,31.32
2023-05-04T13:57:29.760Z,31.75
2023-05-04T14:00:06.678Z,31.34
2023-05-04T14:02:34.015Z,30.68
2023-05-04T14:05:01.395Z,30.77
2023-05-04T14:07:27.934Z,30.74
2023-05-04T14:09:56.039Z,30.84
2023-05-04T14:12:22.809Z,30.51
2023-05-04T14:14:50.707Z,30.49
2023-05-04T14:17:17.543Z,30.79
2023-05-04T14:19:44.729Z,30.59
2023-05-04T14:22:11.234Z,30.18
2023-05-04T14:24:37.830Z,30.45
2023-05-04T14:27:04.401Z,30.04
2023-05-04T14:29:32.303Z,30.21
2023-05-04T14:31:58.919Z,30.05
2023-05-04T14:34:25.553Z,30.05
2023-05-04T14:37:09.181Z,29.75
2023-05-04T14:39:36.578Z,29.54
2023-05-04T14:42:03.243Z,29.56
2023-05-04T14:44:30.123Z,29.50
2023-05-04T14:46:56.856Z,29.47
2023-05-04T14:49:35.518Z,29.34
2023-05-04T14:52:03.809Z,29.28
2023-05-04T14:54:30.352Z,29.12
2023-05-04T14:56:57.105Z,29.14
2023-05-04T14:59:23.621Z,29.03
2023-05-04T15:01:50.252Z,29.11
2023-05-04T15:04:17.140Z,29.05
2023-05-04T15:06:43.591Z,28.92
2023-05-04T15:09:10.029Z,28.75
2023-05-04T15:11:36.704Z,28.64
2023-05-04T15:14:03.446Z,28.67
2023-05-04T15:16:32.424Z,28.58
2023-05-04T15:18:59.394Z,28.76
2023-05-04T15:21:26.363Z,28.52
2023-05-04T15:23:52.895Z,28.58
2023-05-04T15:26:19.449Z,28.47
2023-05-04T15:28:46.021Z,28.40
2023-05-04T15:31:13.037Z,28.27
2023-05-04T15:33:39.492Z,28.07
2023-05-04T15:36:07.963Z,27.83
2023-05-04T15:38:35.134Z,27.68
2023-05-04T15:41:02.190Z,27.42
2023-05-04T15:43:29.559Z,27.48
2023-05-04T15:45:56.078Z,27.18
2023-05-04T15:48:22.602Z,26.88
2023-05-04T15:50:49.431Z,26.68
2023-05-04T15:53:15.998Z,26.58
2023-05-04T15:55:42.590Z,26.57
2023-05-04T15:58:10.671Z,26.40
2023-05-04T16:00:38.266Z,26.44
2023-05-04T16:03:08.108Z,26.47
2023-05-04T16:05:34.925Z,26.48
2023-05-04T16:08:01.855Z,26.56
2023-05-04T16:10:28.286Z,26.57
2023-05-04T16:12:54.817Z,26.64
2023-05-04T16:15:21.507Z,26.47
2023-05-04T16:17:47.944Z,26.36
2023-05-04T16:20:14.467Z,26.32
2023-05-04T16:22:41.014Z,26.37
2023-05-04T16:25:08.832Z,26.48
2023-05-04T16:27:36.798Z,26.51
2023-05-04T16:30:03.449Z,26.48
2023-05-04T16:32:29.942Z,26.48
2023-05-04T16:34:56.427Z,26.23
2023-05-04T16:37:22.911Z,26.32
2023-05-04T16:39:49.349Z,26.15
2023-05-04T16:42:15.935Z,26.15
2023-05-04T16:44:42.442Z,26.10
2023-05-04T16:47:08.996Z,26.01
2023-05-04T16:49:35.491Z,25.92
2023-05-04T16:52:03.306Z,25.84
2023-05-04T16:54:29.973Z,25.72
2023-05-04T16:56:56.669Z,25.71
2023-05-04T16:59:23.459Z,25.65
2023-05-04T17:01:50.103Z,25.54
2023-05-04T17:04:16.753Z,25.64
2023-05-04T17:06:43.322Z,25.74
2023-05-04T17:09:09.916Z,25.72
2023-05-04T17:11:36.486Z,25.65
2023-05-04T17:14:03.591Z,25.50
2023-05-04T17:16:30.161Z,25.44
2023-05-04T17:18:56.660Z,25.37
2023-05-04T17:21:23.204Z,25.41
2023-05-04T17:23:49.656Z,25.28
2023-05-04T17:26:16.100Z,25.38
2023-05-04T17:28:42.901Z,25.37
2023-05-04T17:31:12.578Z,25.19
2023-05-04T17:33:39.684Z,25.14
2023-05-04T17:36:07.709Z,25.27
2023-05-04T17:38:34.374Z,25.30
2023-05-04T17:41:00.929Z,25.39
2023-05-04T17:43:27.409Z,25.32
2023-05-04T17:45:55.809Z,25.33
2023-05-04T17:48:24.088Z,25.26
2023-05-04T17:50:51.117Z,25.15
2023-05-04T17:53:17.559Z,25.09
2023-05-04T17:55:44.104Z,25.09
2023-05-04T17:58:10.839Z,24.94
2023-05-04T18:00:37.445Z,24.99
2023-05-04T18:03:04.324Z,24.88
2023-05-04T18:05:32.010Z,24.92
2023-05-04T18:07:58.674Z,24.91
2023-05-04T18:10:25.276Z,24.85
2023-05-04T18:12:51.802Z,24.91
2023-05-04T18:15:18.540Z,24.70
2023-05-04T18:17:45.095Z,24.64
2023-05-04T18:20:13.101Z,24.58
2023-05-04T18:22:39.663Z,24.54
2023-05-04T18:25:06.807Z,24.47
2023-05-04T18:27:34.629Z,24.40
2023-05-04T18:30:02.182Z,24.35
2023-05-04T18:32:28.884Z,24.25
2023-05-04T18:34:57.821Z,24.19
2023-05-04T18:37:25.017Z,24.11
2023-05-04T18:39:51.560Z,24.04
2023-05-04T18:42:18.054Z,23.99
2023-05-04T18:44:44.549Z,24.02
2023-05-04T18:47:11.364Z,24.08
2023-05-04T18:49:38.171Z,23.97
2023-05-04T18:52:05.063Z,23.86
2023-05-04T18:54:32.345Z,23.86
2023-05-04T18:56:59.242Z,23.81
2023-05-04T18:59:25.942Z,23.60
2023-05-04T19:01:53.066Z,23.66
2023-05-04T19:04:19.689Z,23.47
2023-05-04T19:06:47.649Z,23.38
2023-05-04T19:09:14.883Z,23.35
2023-05-04T19:11:41.439Z,23.19
2023-05-04T19:14:08.009Z,23.16
2023-05-04T19:16:34.507Z,23.08
2023-05-04T19:19:00.969Z,23.05
2023-05-04T19:21:28.473Z,22.94
2023-05-04T19:23:55.126Z,22.92
2023-05-04T19:26:21.904Z,22.85
2023-05-04T19:28:48.396Z,22.74
2023-05-04T19:31:15.489Z,22.64
2023-05-04T19:33:48.594Z,22.60
2023-05-04T19:36:17.003Z,22.59
2023-05-04T19:38:43.800Z,22.54
2023-05-04T19:41:10.415Z,22.60
2023-05-04T19:43:38.455Z,22.67
2023-05-04T19:46:05.060Z,22.61
2023-05-04T19:48:31.849Z,22.60
2023-05-04T19:50:58.435Z,22.56
2023-05-04T19:53:25.255Z,22.54
2023-05-04T19:55:52.913Z,22.50
2023-05-04T19:58:19.501Z,22.47
2023-05-04T20:00:46.078Z,22.38
2023-05-04T20:03:12.588Z,22.42
2023-05-04T20:05:39.415Z,22.32
2023-05-04T20:08:05.837Z,22.31
2023-05-04T20:10:32.421Z,22.27
2023-05-04T20:12:59.034Z,22.20
2023-05-04T20:15:25.986Z,22.11
2023-05-04T20:17:52.718Z,22.14
2023-05-04T20:20:21.492Z,22.04
2023-05-04T20:22:52.184Z,22.03
2023-05-04T20:25:19.940Z,21.89
2023-05-04T20:27:48.563Z,21.89
2023-05-04T20:30:15.424Z,21.78
2023-05-04T20:32:42.613Z,21.67
2023-05-04T20:35:09.435Z,21.47
2023-05-04T20:37:35.992Z,21.33
2023-05-04T20:40:02.551Z,21.20
2023-05-04T20:42:29.380Z,21.10
2023-05-04T20:44:55.863Z,20.92
2023-05-04T20:47:22.613Z,20.91
2023-05-04T20:49:49.229Z,20.74
2023-05-04T20:52:16.044Z,20.61
2023-05-04T20:54:42.494Z,20.50
2023-05-04T20:57:09.077Z,20.51
2023-05-04T20:59:35.575Z,20.35
2023-05-04T21:02:02.048Z,20.42
2023-05-04T21:04:28.569Z,20.32
2023-05-04T21:06:56.926Z,20.21
2023-05-04T21:09:23.452Z,20.10
2023-05-04T21:11:50.012Z,20.17
2023-05-04T21:14:16.520Z,20.13
2023-05-04T21:16:43.014Z,19.96
2023-05-04T21:19:09.595Z,19.98
2023-05-04T21:21:40.617Z,20.06
2023-05-04T21:24:12.153Z,20.00
2023-05-04T21:26:39.107Z,20.00
2023-05-04T21:29:05.826Z,19.94
2023-05-04T21:31:33.274Z,19.99
2023-05-04T21:33:59.912Z,19.99
2023-05-04T21:36:27.432Z,20.02
2023-05-04T21:38:55.248Z,19.99
2023-05-04T21:41:22.240Z,19.92
2023-05-04T21:43:48.752Z,19.94
2023-05-04T21:46:15.561Z,19.90
2023-05-04T21:48:42.189Z,19.88
2023-05-04T21:51:08.890Z,19.88
2023-05-04T21:53:35.580Z,19.85
2023-05-04T21:56:06.503Z,19.87
2023-05-04T21:58:33.134Z,19.88
2023-05-04T22:00:59.816Z,19.76
2023-05-04T22:03:28.475Z,19.54
2023-05-04T22:05:57.681Z,19.32
2023-05-04T22:08:25.140Z,19.11
2023-05-04T22:10:53.635Z,19.02
2023-05-04T22:13:20.164Z,18.87
2023-05-04T22:15:50.295Z,18.78
2023-05-04T22:18:17.312Z,18.82
2023-05-04T22:20:43.862Z,18.82
2023-05-04T22:23:10.553Z,18.83
2023-05-04T22:25:37.073Z,18.89
2023-05-04T22:28:03.823Z,18.78
2023-05-04T22:30:30.493Z,18.68
2023-05-04T22:32:57.562Z,18.53
2023-05-04T22:35:24.279Z,18.47
2023-05-04T22:37:50.958Z,18.36
2023-05-04T22:40:17.585Z,18.23
2023-05-04T22:42:47.568Z,18.38
2023-05-04T22:45:14.861Z,18.50
2023-05-04T22:47:42.260Z,18.36
2023-05-04T22:50:10.452Z,18.16
2023-05-04T22:52:38.102Z,18.32
2023-05-04T22:55:05.755Z,18.32
2023-05-04T22:57:32.347Z,18.17
2023-05-04T22:59:58.851Z,17.97
2023-05-04T23:02:25.697Z,17.90
2023-05-04T23:04:53.226Z,18.13
2023-05-04T23:07:19.825Z,18.06
2023-05-04T23:09:47.056Z,18.09
2023-05-04T23:12:14.438Z,18.06
2023-05-04T23:14:41.640Z,18.04
2023-05-04T23:17:08.518Z,18.01
2023-05-04T23:19:35.026Z,18.06
2023-05-04T23:22:01.556Z,18.04
2023-05-04T23:24:28.086Z,18.02
2023-05-04T23:26:54.528Z,17.91
2023-05-04T23:29:21.158Z,17.87
2023-05-04T23:31:47.696Z,17.63
2023-05-04T23:34:14.152Z,17.46
2023-05-04T23:36:40.737Z,17.31
2023-05-04T23:39:07.332Z,17.31
2023-05-04T23:41:34.178Z,17.36
2023-05-04T23:44:01.513Z,17.23
2023-05-04T23:46:28.002Z,17.49
2023-05-04T23:48:54.537Z,17.61
2023-05-04T23:51:21.329Z,17.39
2023-05-04T23:53:47.913Z,17.22
2023-05-04T23:56:14.844Z,17.22
2023-05-04T23:58:41.706Z,17.30
